sensor_id;sensor_type;location;lat;lon;timestamp;P1;durP1;ratioP1;P2;durP2;ratioP2
21330;SDS011;10824;51.632;4.950;2022-10-31T00:03:58;8.30;;;3.85;;
21330;SDS011;10824;51.632;4.950;2022-10-31T00:06:25;9.00;;;3.50;;
21330;SDS011;10824;51.632;4.950;2022-10-31T00:09:02;15.75;;;3.92;;
21330;SDS011;10824;51.632;4.950;2022-10-31T00:11:31;8.98;;;3.30;;
21330;SDS011;10824;51.632;4.950;2022-10-31T00:13:59;7.55;;;3.85;;
21330;SDS011;10824;51.632;4.950;2022-10-31T00:16:27;7.07;;;3.00;;
21330;SDS011;10824;51.632;4.950;2022-10-31T00:18:56;10.60;;;4.25;;
21330;SDS011;10824;51.632;4.950;2022-10-31T00:21:29;8.75;;;4.30;;
21330;SDS011;10824;51.632;4.950;2022-10-31T00:24:00;7.80;;;3.58;;
21330;SDS011;10824;51.632;4.950;2022-10-31T00:26:28;10.63;;;4.70;;
21330;SDS011;10824;51.632;4.950;2022-10-31T00:28:57;5.75;;;3.17;;
21330;SDS011;10824;51.632;4.950;2022-10-31T00:31:26;7.07;;;3.40;;
21330;SDS011;10824;51.632;4.950;2022-10-31T00:33:54;7.57;;;3.28;;
21330;SDS011;10824;51.632;4.950;2022-10-31T00:36:21;6.32;;;3.22;;
21330;SDS011;10824;51.632;4.950;2022-10-31T00:38:48;10.07;;;4.32;;
21330;SDS011;10824;51.632;4.950;2022-10-31T00:41:16;7.07;;;3.30;;
21330;SDS011;10824;51.632;4.950;2022-10-31T00:43:44;10.75;;;2.92;;
21330;SDS011;10824;51.632;4.950;2022-10-31T00:46:12;8.77;;;3.33;;
21330;SDS011;10824;51.632;4.950;2022-10-31T00:48:40;9.48;;;3.45;;
21330;SDS011;10824;51.632;4.950;2022-10-31T00:51:07;8.13;;;3.95;;
21330;SDS011;10824;51.632;4.950;2022-10-31T00:53:35;9.32;;;4.00;;
21330;SDS011;10824;51.632;4.950;2022-10-31T00:56:02;6.22;;;3.05;;
21330;SDS011;10824;51.632;4.950;2022-10-31T00:58:29;8.52;;;4.60;;
21330;SDS011;10824;51.632;4.950;2022-10-31T01:00:56;11.88;;;3.80;;
21330;SDS011;10824;51.632;4.950;2022-10-31T01:03:28;6.88;;;3.67;;
21330;SDS011;10824;51.632;4.950;2022-10-31T01:05:58;8.00;;;4.18;;
21330;SDS011;10824;51.632;4.950;2022-10-31T01:08:33;9.45;;;3.53;;
21330;SDS011;10824;51.632;4.950;2022-10-31T01:11:10;7.00;;;3.67;;
21330;SDS011;10824;51.632;4.950;2022-10-31T01:13:43;10.40;;;3.70;;
21330;SDS011;10824;51.632;4.950;2022-10-31T01:16:13;8.23;;;3.67;;
21330;SDS011;10824;51.632;4.950;2022-10-31T01:18:41;7.95;;;3.25;;
21330;SDS011;10824;51.632;4.950;2022-10-31T01:21:10;7.47;;;3.47;;
21330;SDS011;10824;51.632;4.950;2022-10-31T01:23:39;6.28;;;3.35;;
21330;SDS011;10824;51.632;4.950;2022-10-31T01:26:25;8.38;;;3.65;;
21330;SDS011;10824;51.632;4.950;2022-10-31T01:28:55;6.80;;;3.10;;
21330;SDS011;10824;51.632;4.950;2022-10-31T01:31:34;6.55;;;3.40;;
21330;SDS011;10824;51.632;4.950;2022-10-31T01:34:03;8.35;;;3.40;;
21330;SDS011;10824;51.632;4.950;2022-10-31T01:36:34;7.03;;;3.72;;
21330;SDS011;10824;51.632;4.950;2022-10-31T01:39:05;6.63;;;3.85;;
21330;SDS011;10824;51.632;4.950;2022-10-31T01:41:35;9.65;;;4.15;;
21330;SDS011;10824;51.632;4.950;2022-10-31T01:49:15;8.93;;;3.83;;
21330;SDS011;10824;51.632;4.950;2022-10-31T01:51:49;7.65;;;3.95;;
21330;SDS011;10824;51.632;4.950;2022-10-31T01:54:21;10.45;;;3.95;;
21330;SDS011;10824;51.632;4.950;2022-10-31T01:56:54;6.38;;;3.40;;
21330;SDS011;10824;51.632;4.950;2022-10-31T01:59:24;10.38;;;3.53;;
21330;SDS011;10824;51.632;4.950;2022-10-31T02:01:56;6.35;;;2.92;;
21330;SDS011;10824;51.632;4.950;2022-10-31T02:04:25;6.85;;;3.10;;
21330;SDS011;10824;51.632;4.950;2022-10-31T02:06:58;12.85;;;3.40;;
21330;SDS011;10824;51.632;4.950;2022-10-31T02:09:36;8.20;;;4.22;;
21330;SDS011;10824;51.632;4.950;2022-10-31T02:12:03;6.00;;;3.60;;
21330;SDS011;10824;51.632;4.950;2022-10-31T02:14:32;7.07;;;3.00;;
21330;SDS011;10824;51.632;4.950;2022-10-31T02:17:02;5.50;;;2.97;;
21330;SDS011;10824;51.632;4.950;2022-10-31T02:22:09;6.90;;;3.10;;
21330;SDS011;10824;51.632;4.950;2022-10-31T02:24:53;8.18;;;3.72;;
21330;SDS011;10824;51.632;4.950;2022-10-31T02:30:23;8.52;;;3.20;;
21330;SDS011;10824;51.632;4.950;2022-10-31T02:33:06;9.60;;;3.33;;
21330;SDS011;10824;51.632;4.950;2022-10-31T02:35:54;6.90;;;3.50;;
21330;SDS011;10824;51.632;4.950;2022-10-31T02:38:46;5.82;;;3.47;;
21330;SDS011;10824;51.632;4.950;2022-10-31T02:41:49;6.60;;;3.25;;
21330;SDS011;10824;51.632;4.950;2022-10-31T02:44:36;5.68;;;3.10;;
21330;SDS011;10824;51.632;4.950;2022-10-31T02:47:09;8.82;;;3.20;;
21330;SDS011;10824;51.632;4.950;2022-10-31T02:49:45;9.93;;;3.55;;
21330;SDS011;10824;51.632;4.950;2022-10-31T02:52:26;5.90;;;3.15;;
21330;SDS011;10824;51.632;4.950;2022-10-31T02:57:51;7.15;;;3.40;;
21330;SDS011;10824;51.632;4.950;2022-10-31T03:00:25;8.02;;;3.58;;
21330;SDS011;10824;51.632;4.950;2022-10-31T03:03:00;6.82;;;3.20;;
21330;SDS011;10824;51.632;4.950;2022-10-31T03:05:55;6.20;;;3.45;;
21330;SDS011;10824;51.632;4.950;2022-10-31T03:08:35;7.15;;;3.20;;
21330;SDS011;10824;51.632;4.950;2022-10-31T03:11:08;8.77;;;3.38;;
21330;SDS011;10824;51.632;4.950;2022-10-31T03:13:47;10.65;;;3.72;;
21330;SDS011;10824;51.632;4.950;2022-10-31T03:16:32;7.93;;;3.83;;
21330;SDS011;10824;51.632;4.950;2022-10-31T03:19:08;7.55;;;3.45;;
21330;SDS011;10824;51.632;4.950;2022-10-31T03:24:10;8.68;;;3.67;;
21330;SDS011;10824;51.632;4.950;2022-10-31T03:26:46;8.50;;;3.92;;
21330;SDS011;10824;51.632;4.950;2022-10-31T03:29:18;8.65;;;4.68;;
21330;SDS011;10824;51.632;4.950;2022-10-31T03:31:49;6.07;;;3.53;;
21330;SDS011;10824;51.632;4.950;2022-10-31T03:34:25;9.73;;;4.35;;
21330;SDS011;10824;51.632;4.950;2022-10-31T03:36:56;7.45;;;4.03;;
21330;SDS011;10824;51.632;4.950;2022-10-31T03:39:26;5.82;;;3.70;;
21330;SDS011;10824;51.632;4.950;2022-10-31T03:42:09;5.93;;;2.92;;
21330;SDS011;10824;51.632;4.950;2022-10-31T03:47:30;8.50;;;4.05;;
21330;SDS011;10824;51.632;4.950;2022-10-31T03:49:58;4.68;;;3.40;;
21330;SDS011;10824;51.632;4.950;2022-10-31T03:52:31;6.88;;;3.80;;
21330;SDS011;10824;51.632;4.950;2022-10-31T03:57:54;14.40;;;4.85;;
21330;SDS011;10824;51.632;4.950;2022-10-31T04:00:31;11.15;;;5.32;;
21330;SDS011;10824;51.632;4.950;2022-10-31T04:03:01;10.30;;;3.90;;
21330;SDS011;10824;51.632;4.950;2022-10-31T04:05:37;8.23;;;4.32;;
21330;SDS011;10824;51.632;4.950;2022-10-31T04:08:07;8.05;;;4.22;;
21330;SDS011;10824;51.632;4.950;2022-10-31T04:10:39;15.02;;;4.80;;
21330;SDS011;10824;51.632;4.950;2022-10-31T04:13:11;7.32;;;3.53;;
21330;SDS011;10824;51.632;4.950;2022-10-31T04:15:44;11.50;;;4.03;;
21330;SDS011;10824;51.632;4.950;2022-10-31T04:18:14;10.00;;;4.00;;
21330;SDS011;10824;51.632;4.950;2022-10-31T04:20:41;5.78;;;3.75;;
21330;SDS011;10824;51.632;4.950;2022-10-31T04:23:15;7.28;;;3.25;;
21330;SDS011;10824;51.632;4.950;2022-10-31T04:25:49;8.75;;;3.95;;
21330;SDS011;10824;51.632;4.950;2022-10-31T04:28:17;7.97;;;3.08;;
21330;SDS011;10824;51.632;4.950;2022-10-31T04:30:50;7.90;;;4.10;;
21330;SDS011;10824;51.632;4.950;2022-10-31T04:33:17;6.75;;;3.50;;
21330;SDS011;10824;51.632;4.950;2022-10-31T04:35:46;10.13;;;4.50;;
21330;SDS011;10824;51.632;4.950;2022-10-31T04:38:13;12.13;;;4.40;;
21330;SDS011;10824;51.632;4.950;2022-10-31T04:40:42;5.68;;;2.90;;
21330;SDS011;10824;51.632;4.950;2022-10-31T04:43:27;5.80;;;3.08;;
21330;SDS011;10824;51.632;4.950;2022-10-31T04:45:54;7.10;;;3.60;;
21330;SDS011;10824;51.632;4.950;2022-10-31T04:48:21;9.25;;;3.10;;
21330;SDS011;10824;51.632;4.950;2022-10-31T04:50:49;8.30;;;3.83;;
21330;SDS011;10824;51.632;4.950;2022-10-31T04:53:16;6.72;;;3.30;;
21330;SDS011;10824;51.632;4.950;2022-10-31T04:56:03;4.75;;;2.80;;
21330;SDS011;10824;51.632;4.950;2022-10-31T04:58:43;6.00;;;3.63;;
21330;SDS011;10824;51.632;4.950;2022-10-31T05:01:11;6.60;;;2.97;;
21330;SDS011;10824;51.632;4.950;2022-10-31T05:03:39;9.45;;;4.68;;
21330;SDS011;10824;51.632;4.950;2022-10-31T05:06:06;7.45;;;2.72;;
21330;SDS011;10824;51.632;4.950;2022-10-31T05:08:36;9.60;;;3.65;;
21330;SDS011;10824;51.632;4.950;2022-10-31T05:11:05;6.68;;;3.70;;
21330;SDS011;10824;51.632;4.950;2022-10-31T05:13:33;6.32;;;3.00;;
21330;SDS011;10824;51.632;4.950;2022-10-31T05:16:00;5.53;;;2.85;;
21330;SDS011;10824;51.632;4.950;2022-10-31T05:18:45;9.35;;;3.90;;
21330;SDS011;10824;51.632;4.950;2022-10-31T05:21:46;6.93;;;3.55;;
21330;SDS011;10824;51.632;4.950;2022-10-31T05:24:13;11.50;;;4.00;;
21330;SDS011;10824;51.632;4.950;2022-10-31T05:26:46;8.32;;;3.65;;
21330;SDS011;10824;51.632;4.950;2022-10-31T05:29:13;7.80;;;3.67;;
21330;SDS011;10824;51.632;4.950;2022-10-31T05:31:40;9.52;;;4.15;;
21330;SDS011;10824;51.632;4.950;2022-10-31T05:34:18;9.73;;;4.30;;
21330;SDS011;10824;51.632;4.950;2022-10-31T05:37:05;10.00;;;4.35;;
21330;SDS011;10824;51.632;4.950;2022-10-31T05:39:32;13.15;;;4.30;;
21330;SDS011;10824;51.632;4.950;2022-10-31T05:42:07;7.18;;;3.45;;
21330;SDS011;10824;51.632;4.950;2022-10-31T05:44:34;9.52;;;3.70;;
21330;SDS011;10824;51.632;4.950;2022-10-31T05:47:36;10.18;;;5.60;;
21330;SDS011;10824;51.632;4.950;2022-10-31T05:50:25;12.65;;;5.68;;
21330;SDS011;10824;51.632;4.950;2022-10-31T05:53:13;5.93;;;2.85;;
21330;SDS011;10824;51.632;4.950;2022-10-31T05:55:41;5.40;;;3.25;;
21330;SDS011;10824;51.632;4.950;2022-10-31T05:58:12;4.88;;;2.50;;
21330;SDS011;10824;51.632;4.950;2022-10-31T06:00:48;5.07;;;2.33;;
21330;SDS011;10824;51.632;4.950;2022-10-31T06:03:15;4.18;;;2.58;;
21330;SDS011;10824;51.632;4.950;2022-10-31T06:05:52;5.47;;;3.33;;
21330;SDS011;10824;51.632;4.950;2022-10-31T06:08:24;5.57;;;3.13;;
21330;SDS011;10824;51.632;4.950;2022-10-31T06:10:53;5.70;;;3.38;;
21330;SDS011;10824;51.632;4.950;2022-10-31T06:13:40;8.93;;;5.20;;
21330;SDS011;10824;51.632;4.950;2022-10-31T06:16:17;6.65;;;3.60;;
21330;SDS011;10824;51.632;4.950;2022-10-31T06:18:45;9.30;;;4.25;;
21330;SDS011;10824;51.632;4.950;2022-10-31T06:21:14;9.05;;;3.65;;
21330;SDS011;10824;51.632;4.950;2022-10-31T06:23:46;8.05;;;3.75;;
21330;SDS011;10824;51.632;4.950;2022-10-31T06:26:33;10.50;;;4.72;;
21330;SDS011;10824;51.632;4.950;2022-10-31T06:29:01;9.73;;;3.88;;
21330;SDS011;10824;51.632;4.950;2022-10-31T06:31:53;8.13;;;3.22;;
21330;SDS011;10824;51.632;4.950;2022-10-31T06:34:20;7.43;;;4.38;;
21330;SDS011;10824;51.632;4.950;2022-10-31T06:36:48;8.65;;;4.70;;
21330;SDS011;10824;51.632;4.950;2022-10-31T06:39:19;14.85;;;4.47;;
21330;SDS011;10824;51.632;4.950;2022-10-31T06:41:49;6.68;;;4.18;;
21330;SDS011;10824;51.632;4.950;2022-10-31T06:44:19;7.68;;;3.67;;
21330;SDS011;10824;51.632;4.950;2022-10-31T06:46:55;7.10;;;3.55;;
21330;SDS011;10824;51.632;4.950;2022-10-31T06:49:31;7.15;;;3.42;;
21330;SDS011;10824;51.632;4.950;2022-10-31T06:52:01;8.02;;;3.10;;
21330;SDS011;10824;51.632;4.950;2022-10-31T06:54:28;8.45;;;3.83;;
21330;SDS011;10824;51.632;4.950;2022-10-31T06:56:55;7.38;;;3.95;;
21330;SDS011;10824;51.632;4.950;2022-10-31T06:59:22;6.63;;;3.17;;
21330;SDS011;10824;51.632;4.950;2022-10-31T07:02:28;9.07;;;4.18;;
21330;SDS011;10824;51.632;4.950;2022-10-31T07:04:56;8.93;;;3.60;;
21330;SDS011;10824;51.632;4.950;2022-10-31T07:07:23;8.45;;;4.28;;
21330;SDS011;10824;51.632;4.950;2022-10-31T07:09:50;11.85;;;4.13;;
21330;SDS011;10824;51.632;4.950;2022-10-31T07:12:26;8.98;;;4.03;;
21330;SDS011;10824;51.632;4.950;2022-10-31T07:14:57;8.82;;;4.93;;
21330;SDS011;10824;51.632;4.950;2022-10-31T07:17:25;10.23;;;4.28;;
21330;SDS011;10824;51.632;4.950;2022-10-31T07:19:58;8.55;;;4.15;;
21330;SDS011;10824;51.632;4.950;2022-10-31T07:22:25;8.98;;;4.30;;
21330;SDS011;10824;51.632;4.950;2022-10-31T07:25:04;14.43;;;5.53;;
21330;SDS011;10824;51.632;4.950;2022-10-31T07:28:04;10.70;;;4.72;;
21330;SDS011;10824;51.632;4.950;2022-10-31T07:30:32;10.10;;;5.60;;
21330;SDS011;10824;51.632;4.950;2022-10-31T07:33:01;14.23;;;4.63;;
21330;SDS011;10824;51.632;4.950;2022-10-31T07:35:48;8.43;;;4.03;;
21330;SDS011;10824;51.632;4.950;2022-10-31T07:38:20;18.08;;;8.15;;
21330;SDS011;10824;51.632;4.950;2022-10-31T07:40:51;20.50;;;7.50;;
21330;SDS011;10824;51.632;4.950;2022-10-31T07:43:22;13.75;;;6.35;;
21330;SDS011;10824;51.632;4.950;2022-10-31T07:46:11;11.25;;;5.78;;
21330;SDS011;10824;51.632;4.950;2022-10-31T07:48:57;13.80;;;5.15;;
21330;SDS011;10824;51.632;4.950;2022-10-31T07:51:54;16.75;;;6.00;;
21330;SDS011;10824;51.632;4.950;2022-10-31T07:54:44;10.23;;;5.00;;
21330;SDS011;10824;51.632;4.950;2022-10-31T07:57:20;13.50;;;5.35;;
21330;SDS011;10824;51.632;4.950;2022-10-31T07:59:50;10.63;;;4.85;;
21330;SDS011;10824;51.632;4.950;2022-10-31T08:02:18;9.25;;;4.88;;
21330;SDS011;10824;51.632;4.950;2022-10-31T08:04:48;9.57;;;4.82;;
21330;SDS011;10824;51.632;4.950;2022-10-31T08:07:35;13.90;;;5.57;;
21330;SDS011;10824;51.632;4.950;2022-10-31T08:10:06;10.32;;;4.60;;
21330;SDS011;10824;51.632;4.950;2022-10-31T08:12:34;13.27;;;5.28;;
21330;SDS011;10824;51.632;4.950;2022-10-31T08:15:05;12.23;;;5.20;;
21330;SDS011;10824;51.632;4.950;2022-10-31T08:17:37;14.02;;;6.32;;
21330;SDS011;10824;51.632;4.950;2022-10-31T08:20:06;14.95;;;6.90;;
21330;SDS011;10824;51.632;4.950;2022-10-31T08:22:41;16.98;;;5.47;;
21330;SDS011;10824;51.632;4.950;2022-10-31T08:25:10;13.32;;;5.20;;
21330;SDS011;10824;51.632;4.950;2022-10-31T08:27:37;9.38;;;5.38;;
21330;SDS011;10824;51.632;4.950;2022-10-31T08:30:05;13.85;;;5.70;;
21330;SDS011;10824;51.632;4.950;2022-10-31T08:32:35;12.55;;;5.50;;
21330;SDS011;10824;51.632;4.950;2022-10-31T08:35:21;12.57;;;4.97;;
21330;SDS011;10824;51.632;4.950;2022-10-31T08:38:08;9.63;;;4.72;;
21330;SDS011;10824;51.632;4.950;2022-10-31T08:40:39;9.55;;;4.60;;
21330;SDS011;10824;51.632;4.950;2022-10-31T08:43:13;16.17;;;6.05;;
21330;SDS011;10824;51.632;4.950;2022-10-31T08:45:42;19.90;;;6.40;;
21330;SDS011;10824;51.632;4.950;2022-10-31T08:48:17;12.23;;;5.55;;
21330;SDS011;10824;51.632;4.950;2022-10-31T08:50:45;13.57;;;6.55;;
21330;SDS011;10824;51.632;4.950;2022-10-31T08:53:14;15.18;;;6.57;;
21330;SDS011;10824;51.632;4.950;2022-10-31T08:55:46;14.48;;;5.82;;
21330;SDS011;10824;51.632;4.950;2022-10-31T08:58:23;13.77;;;5.95;;
21330;SDS011;10824;51.632;4.950;2022-10-31T09:00:58;10.82;;;5.53;;
21330;SDS011;10824;51.632;4.950;2022-10-31T09:03:27;10.52;;;5.60;;
21330;SDS011;10824;51.632;4.950;2022-10-31T09:05:59;10.20;;;5.72;;
21330;SDS011;10824;51.632;4.950;2022-10-31T09:08:31;19.33;;;8.60;;
21330;SDS011;10824;51.632;4.950;2022-10-31T09:11:00;18.88;;;6.30;;
21330;SDS011;10824;51.632;4.950;2022-10-31T09:13:47;11.43;;;6.03;;
21330;SDS011;10824;51.632;4.950;2022-10-31T09:16:43;11.48;;;5.95;;
21330;SDS011;10824;51.632;4.950;2022-10-31T09:19:19;13.10;;;6.18;;
21330;SDS011;10824;51.632;4.950;2022-10-31T09:21:47;12.75;;;5.85;;
21330;SDS011;10824;51.632;4.950;2022-10-31T09:24:14;17.52;;;7.70;;
21330;SDS011;10824;51.632;4.950;2022-10-31T09:26:41;12.80;;;5.70;;
21330;SDS011;10824;51.632;4.950;2022-10-31T09:29:25;9.88;;;5.53;;
21330;SDS011;10824;51.632;4.950;2022-10-31T09:31:57;11.68;;;5.47;;
21330;SDS011;10824;51.632;4.950;2022-10-31T09:34:27;12.07;;;5.13;;
21330;SDS011;10824;51.632;4.950;2022-10-31T09:37:20;11.50;;;4.93;;
21330;SDS011;10824;51.632;4.950;2022-10-31T09:39:50;10.95;;;5.10;;
21330;SDS011;10824;51.632;4.950;2022-10-31T09:45:13;13.25;;;5.13;;
21330;SDS011;10824;51.632;4.950;2022-10-31T09:47:51;10.63;;;5.22;;
21330;SDS011;10824;51.632;4.950;2022-10-31T09:56:38;12.73;;;6.07;;
21330;SDS011;10824;51.632;4.950;2022-10-31T09:59:06;14.40;;;5.78;;
21330;SDS011;10824;51.632;4.950;2022-10-31T10:02:22;14.70;;;6.00;;
21330;SDS011;10824;51.632;4.950;2022-10-31T10:05:00;12.88;;;6.10;;
21330;SDS011;10824;51.632;4.950;2022-10-31T10:07:37;17.13;;;5.93;;
21330;SDS011;10824;51.632;4.950;2022-10-31T10:10:48;14.27;;;5.90;;
21330;SDS011;10824;51.632;4.950;2022-10-31T10:16:41;14.30;;;7.00;;
21330;SDS011;10824;51.632;4.950;2022-10-31T10:32:29;19.75;;;7.38;;
21330;SDS011;10824;51.632;4.950;2022-10-31T10:35:19;15.95;;;7.05;;
21330;SDS011;10824;51.632;4.950;2022-10-31T10:37:52;18.05;;;6.85;;
21330;SDS011;10824;51.632;4.950;2022-10-31T10:40:27;14.90;;;6.50;;
21330;SDS011;10824;51.632;4.950;2022-10-31T10:42:57;25.10;;;8.15;;
21330;SDS011;10824;51.632;4.950;2022-10-31T10:45:46;16.52;;;7.63;;
21330;SDS011;10824;51.632;4.950;2022-10-31T10:51:49;18.88;;;9.23;;
21330;SDS011;10824;51.632;4.950;2022-10-31T11:00:24;23.42;;;7.80;;
21330;SDS011;10824;51.632;4.950;2022-10-31T11:03:18;19.35;;;8.07;;
21330;SDS011;10824;51.632;4.950;2022-10-31T11:11:32;22.98;;;8.55;;
21330;SDS011;10824;51.632;4.950;2022-10-31T11:14:06;18.13;;;8.25;;
21330;SDS011;10824;51.632;4.950;2022-10-31T11:16:40;20.27;;;8.40;;
21330;SDS011;10824;51.632;4.950;2022-10-31T11:21:38;15.65;;;7.70;;
21330;SDS011;10824;51.632;4.950;2022-10-31T11:26:35;19.75;;;7.60;;
21330;SDS011;10824;51.632;4.950;2022-10-31T11:29:20;22.98;;;8.80;;
21330;SDS011;10824;51.632;4.950;2022-10-31T11:31:52;21.48;;;8.85;;
21330;SDS011;10824;51.632;4.950;2022-10-31T11:34:25;21.02;;;9.95;;
21330;SDS011;10824;51.632;4.950;2022-10-31T11:36:53;21.98;;;8.48;;
21330;SDS011;10824;51.632;4.950;2022-10-31T11:39:23;22.38;;;8.82;;
21330;SDS011;10824;51.632;4.950;2022-10-31T11:41:51;19.30;;;9.18;;
21330;SDS011;10824;51.632;4.950;2022-10-31T11:44:24;29.63;;;10.45;;
21330;SDS011;10824;51.632;4.950;2022-10-31T11:46:55;23.55;;;9.65;;
21330;SDS011;10824;51.632;4.950;2022-10-31T11:52:06;21.45;;;9.85;;
21330;SDS011;10824;51.632;4.950;2022-10-31T11:54:41;24.63;;;9.63;;
21330;SDS011;10824;51.632;4.950;2022-10-31T11:57:30;25.33;;;10.73;;
21330;SDS011;10824;51.632;4.950;2022-10-31T12:00:00;49.60;;;13.35;;
21330;SDS011;10824;51.632;4.950;2022-10-31T12:02:37;17.67;;;8.93;;
21330;SDS011;10824;51.632;4.950;2022-10-31T12:05:07;32.22;;;10.40;;
21330;SDS011;10824;51.632;4.950;2022-10-31T12:07:43;28.25;;;12.00;;
21330;SDS011;10824;51.632;4.950;2022-10-31T12:10:11;31.17;;;11.82;;
21330;SDS011;10824;51.632;4.950;2022-10-31T12:15:42;26.90;;;10.40;;
21330;SDS011;10824;51.632;4.950;2022-10-31T12:19:04;26.65;;;9.38;;
21330;SDS011;10824;51.632;4.950;2022-10-31T12:24:32;28.17;;;10.23;;
21330;SDS011;10824;51.632;4.950;2022-10-31T12:35:16;23.05;;;10.57;;
21330;SDS011;10824;51.632;4.950;2022-10-31T12:46:24;26.40;;;9.25;;
21330;SDS011;10824;51.632;4.950;2022-10-31T12:54:58;26.67;;;10.20;;
21330;SDS011;10824;51.632;4.950;2022-10-31T12:57:57;33.15;;;10.27;;
21330;SDS011;10824;51.632;4.950;2022-10-31T13:00:29;25.88;;;10.70;;
21330;SDS011;10824;51.632;4.950;2022-10-31T13:05:54;28.15;;;11.38;;
21330;SDS011;10824;51.632;4.950;2022-10-31T13:08:39;26.38;;;9.43;;
21330;SDS011;10824;51.632;4.950;2022-10-31T13:11:16;24.00;;;10.38;;
21330;SDS011;10824;51.632;4.950;2022-10-31T13:14:01;20.00;;;10.40;;
21330;SDS011;10824;51.632;4.950;2022-10-31T13:16:38;21.35;;;9.60;;
21330;SDS011;10824;51.632;4.950;2022-10-31T13:19:14;25.42;;;10.15;;
21330;SDS011;10824;51.632;4.950;2022-10-31T13:24:33;24.05;;;9.00;;
21330;SDS011;10824;51.632;4.950;2022-10-31T13:27:15;19.67;;;8.52;;
21330;SDS011;10824;51.632;4.950;2022-10-31T13:44:09;30.25;;;10.10;;
21330;SDS011;10824;51.632;4.950;2022-10-31T13:46:38;23.95;;;11.05;;
21330;SDS011;10824;51.632;4.950;2022-10-31T13:49:24;26.63;;;9.70;;
21330;SDS011;10824;51.632;4.950;2022-10-31T13:57:07;23.60;;;9.82;;
21330;SDS011;10824;51.632;4.950;2022-10-31T13:59:54;20.88;;;8.40;;
21330;SDS011;10824;51.632;4.950;2022-10-31T14:02:37;27.33;;;9.15;;
21330;SDS011;10824;51.632;4.950;2022-10-31T14:05:54;20.30;;;8.50;;
21330;SDS011;10824;51.632;4.950;2022-10-31T14:08:02;23.05;;;8.15;;
21330;SDS011;10824;51.632;4.950;2022-10-31T14:10:46;17.50;;;7.65;;
21330;SDS011;10824;51.632;4.950;2022-10-31T14:13:20;21.90;;;8.23;;
21330;SDS011;10824;51.632;4.950;2022-10-31T14:16:36;22.05;;;8.85;;
21330;SDS011;10824;51.632;4.950;2022-10-31T14:19:05;19.70;;;8.68;;
21330;SDS011;10824;51.632;4.950;2022-10-31T14:21:44;21.45;;;8.10;;
21330;SDS011;10824;51.632;4.950;2022-10-31T14:24:28;20.08;;;8.27;;
21330;SDS011;10824;51.632;4.950;2022-10-31T14:27:35;22.73;;;8.98;;
21330;SDS011;10824;51.632;4.950;2022-10-31T14:29:53;18.88;;;8.52;;
21330;SDS011;10824;51.632;4.950;2022-10-31T14:32:23;38.10;;;9.55;;
21330;SDS011;10824;51.632;4.950;2022-10-31T14:34:57;20.08;;;8.65;;
21330;SDS011;10824;51.632;4.950;2022-10-31T14:46:02;19.92;;;8.85;;
21330;SDS011;10824;51.632;4.950;2022-10-31T14:51:16;21.33;;;8.77;;
21330;SDS011;10824;51.632;4.950;2022-10-31T14:53:54;19.00;;;8.70;;
21330;SDS011;10824;51.632;4.950;2022-10-31T14:56:24;17.77;;;9.23;;
21330;SDS011;10824;51.632;4.950;2022-10-31T14:59:14;19.52;;;8.07;;
21330;SDS011;10824;51.632;4.950;2022-10-31T15:01:50;19.27;;;7.25;;
21330;SDS011;10824;51.632;4.950;2022-10-31T15:04:25;23.33;;;7.80;;
21330;SDS011;10824;51.632;4.950;2022-10-31T15:07:09;16.75;;;6.88;;
21330;SDS011;10824;51.632;4.950;2022-10-31T15:09:58;16.83;;;7.78;;
21330;SDS011;10824;51.632;4.950;2022-10-31T15:12:44;20.10;;;7.25;;
21330;SDS011;10824;51.632;4.950;2022-10-31T15:15:12;20.83;;;8.60;;
21330;SDS011;10824;51.632;4.950;2022-10-31T15:17:48;21.50;;;7.50;;
21330;SDS011;10824;51.632;4.950;2022-10-31T15:20:20;19.63;;;6.80;;
21330;SDS011;10824;51.632;4.950;2022-10-31T15:22:49;23.05;;;6.75;;
21330;SDS011;10824;51.632;4.950;2022-10-31T15:25:19;16.77;;;6.50;;
21330;SDS011;10824;51.632;4.950;2022-10-31T15:27:49;17.20;;;6.90;;
21330;SDS011;10824;51.632;4.950;2022-10-31T15:30:22;15.60;;;6.45;;
21330;SDS011;10824;51.632;4.950;2022-10-31T15:32:50;18.27;;;6.50;;
21330;SDS011;10824;51.632;4.950;2022-10-31T15:35:27;14.50;;;6.50;;
21330;SDS011;10824;51.632;4.950;2022-10-31T15:37:56;16.30;;;5.78;;
21330;SDS011;10824;51.632;4.950;2022-10-31T15:40:28;12.63;;;5.45;;
21330;SDS011;10824;51.632;4.950;2022-10-31T15:43:02;11.43;;;5.20;;
21330;SDS011;10824;51.632;4.950;2022-10-31T15:45:30;12.82;;;5.57;;
21330;SDS011;10824;51.632;4.950;2022-10-31T15:47:59;15.57;;;5.65;;
21330;SDS011;10824;51.632;4.950;2022-10-31T15:50:37;9.98;;;5.18;;
21330;SDS011;10824;51.632;4.950;2022-10-31T15:53:17;10.85;;;4.65;;
21330;SDS011;10824;51.632;4.950;2022-10-31T15:56:06;9.95;;;4.63;;
21330;SDS011;10824;51.632;4.950;2022-10-31T15:58:44;11.05;;;4.97;;
21330;SDS011;10824;51.632;4.950;2022-10-31T16:01:27;13.75;;;5.22;;
21330;SDS011;10824;51.632;4.950;2022-10-31T16:06:32;18.27;;;6.93;;
21330;SDS011;10824;51.632;4.950;2022-10-31T16:09:01;14.60;;;5.68;;
21330;SDS011;10824;51.632;4.950;2022-10-31T16:11:34;11.38;;;4.25;;
21330;SDS011;10824;51.632;4.950;2022-10-31T16:16:41;11.38;;;4.90;;
21330;SDS011;10824;51.632;4.950;2022-10-31T16:19:15;18.52;;;6.25;;
21330;SDS011;10824;51.632;4.950;2022-10-31T16:21:52;12.25;;;4.93;;
21330;SDS011;10824;51.632;4.950;2022-10-31T16:24:46;15.30;;;4.50;;
21330;SDS011;10824;51.632;4.950;2022-10-31T16:27:23;15.27;;;6.38;;
21330;SDS011;10824;51.632;4.950;2022-10-31T16:29:58;10.77;;;4.47;;
21330;SDS011;10824;51.632;4.950;2022-10-31T16:32:30;10.15;;;5.07;;
21330;SDS011;10824;51.632;4.950;2022-10-31T16:35:17;16.20;;;5.85;;
21330;SDS011;10824;51.632;4.950;2022-10-31T16:37:45;13.52;;;5.47;;
21330;SDS011;10824;51.632;4.950;2022-10-31T16:40:12;11.73;;;4.97;;
21330;SDS011;10824;51.632;4.950;2022-10-31T16:42:41;11.25;;;4.18;;
21330;SDS011;10824;51.632;4.950;2022-10-31T16:45:16;17.85;;;5.63;;
21330;SDS011;10824;51.632;4.950;2022-10-31T16:47:48;9.70;;;4.53;;
21330;SDS011;10824;51.632;4.950;2022-10-31T16:50:23;12.82;;;5.28;;
21330;SDS011;10824;51.632;4.950;2022-10-31T16:52:51;14.18;;;5.90;;
21330;SDS011;10824;51.632;4.950;2022-10-31T16:55:41;25.02;;;11.27;;
21330;SDS011;10824;51.632;4.950;2022-10-31T16:58:15;28.13;;;11.32;;
21330;SDS011;10824;51.632;4.950;2022-10-31T17:00:45;12.88;;;6.07;;
21330;SDS011;10824;51.632;4.950;2022-10-31T17:03:12;19.20;;;6.80;;
21330;SDS011;10824;51.632;4.950;2022-10-31T17:05:39;12.55;;;5.70;;
21330;SDS011;10824;51.632;4.950;2022-10-31T17:08:06;13.45;;;4.45;;
21330;SDS011;10824;51.632;4.950;2022-10-31T17:10:34;12.60;;;4.38;;
21330;SDS011;10824;51.632;4.950;2022-10-31T17:13:02;12.85;;;4.85;;
21330;SDS011;10824;51.632;4.950;2022-10-31T17:15:35;7.05;;;4.13;;
21330;SDS011;10824;51.632;4.950;2022-10-31T17:18:08;13.25;;;5.78;;
21330;SDS011;10824;51.632;4.950;2022-10-31T17:20:42;12.68;;;4.45;;
21330;SDS011;10824;51.632;4.950;2022-10-31T17:23:10;8.77;;;3.80;;
21330;SDS011;10824;51.632;4.950;2022-10-31T17:25:39;9.93;;;4.13;;
21330;SDS011;10824;51.632;4.950;2022-10-31T17:28:10;13.30;;;5.13;;
21330;SDS011;10824;51.632;4.950;2022-10-31T17:30:40;13.32;;;4.95;;
21330;SDS011;10824;51.632;4.950;2022-10-31T17:33:09;13.50;;;4.45;;
21330;SDS011;10824;51.632;4.950;2022-10-31T17:35:38;11.98;;;3.90;;
21330;SDS011;10824;51.632;4.950;2022-10-31T17:38:06;13.68;;;4.45;;
21330;SDS011;10824;51.632;4.950;2022-10-31T17:40:33;9.75;;;3.95;;
21330;SDS011;10824;51.632;4.950;2022-10-31T17:43:04;10.02;;;4.05;;
21330;SDS011;10824;51.632;4.950;2022-10-31T17:45:31;11.43;;;5.18;;